Time;durP1;ratioP1;P1;durP2;ratioP2;P2;SDS_P1;SDS_P2;PMS_P1;PMS_P2;Temp;Humidity;BMP_temperature;BMP_pressure;BME280_temperature;BME280_humidity;BME280_pressure;Samples;Min_cycle;Max_cycle;Signal;HPM_P1;HPM_P2
2021/04/08 00:00:21;;;;;;;5.50;3.70;;;;;;;1.26;61.65;98614.74;114550;1193;64409;-77
2021/04/08 00:03:07;;;;;;;4.85;3.40;;;;;;;1.25;62.03;98623.56;114243;1193;64407;-78
2021/04/08 00:05:34;;;;;;;3.87;3.40;;;;;;;1.25;62.68;98615.67;114297;1193;64388;-79
2021/04/08 00:08:01;;;;;;;5.17;3.70;;;;;;;1.29;63.28;98605.89;114213;1193;64404;-79
2021/04/08 00:10:27;;;;;;;7.30;3.27;;;;;;;1.28;62.91;98606.81;114306;1193;64317;-78
2021/04/08 00:12:55;;;;;;;7.27;3.50;;;;;;;1.30;62.70;98608.45;114264;1193;64395;-77
2021/04/08 00:15:23;;;;;;;4.95;4.00;;;;;;;1.31;63.76;98610.16;114329;1193;64419;-78
2021/04/08 00:17:50;;;;;;;6.00;4.40;;;;;;;1.33;62.43;98615.34;114506;1193;64363;-81
2021/04/08 00:20:20;;;;;;;7.40;4.70;;;;;;;1.32;61.95;98614.48;114368;1193;64371;-80
2021/04/08 00:22:47;;;;;;;4.90;4.20;;;;;;;1.33;61.96;98616.20;114433;1193;64333;-79
2021/04/08 00:25:15;;;;;;;6.00;4.07;;;;;;;1.35;62.01;98617.01;114286;1193;64298;-80
2021/04/08 00:27:43;;;;;;;5.50;4.20;;;;;;;1.34;61.90;98615.30;114328;1193;64455;-79
2021/04/08 00:30:10;;;;;;;7.75;4.50;;;;;;;1.34;62.36;98607.41;114281;1193;64375;-78
2021/04/08 00:32:37;;;;;;;8.17;5.03;;;;;;;1.34;62.07;98620.56;114398;1193;64372;-77
2021/04/08 00:35:05;;;;;;;6.13;5.00;;;;;;;1.38;62.08;98623.05;114319;1193;64352;-81
2021/04/08 00:37:32;;;;;;;5.65;4.45;;;;;;;1.39;62.19;98622.98;114316;1193;64304;-80
2021/04/08 00:39:59;;;;;;;10.80;4.97;;;;;;;1.43;62.13;98626.35;114223;1193;64474;-78
2021/04/08 00:42:26;;;;;;;6.17;4.00;;;;;;;1.45;62.06;98624.50;114563;1193;64369;-79
2021/04/08 00:44:53;;;;;;;7.70;5.00;;;;;;;1.48;61.61;98627.02;114261;1193;64308;-78
2021/04/08 00:47:20;;;;;;;6.53;4.30;;;;;;;1.50;61.53;98633.06;114558;1193;64752;-79
2021/04/08 00:49:46;;;;;;;8.95;5.30;;;;;;;1.51;62.09;98626.88;114268;1193;64378;-82
2021/04/08 00:52:13;;;;;;;5.80;4.00;;;;;;;1.52;62.62;98633.84;114262;1193;64509;-77
2021/04/08 00:54:40;;;;;;;7.50;4.45;;;;;;;1.56;62.62;98631.03;114253;1192;64458;-77
2021/04/08 00:57:07;;;;;;;9.27;5.30;;;;;;;1.59;62.14;98633.55;114228;1193;64449;-77
2021/04/08 00:59:34;;;;;;;7.45;4.75;;;;;;;1.59;62.02;98641.44;114251;1193;64384;-77
2021/04/08 01:02:01;;;;;;;6.57;4.17;;;;;;;1.61;62.70;98641.38;114328;1193;64381;-81
2021/04/08 01:04:28;;;;;;;7.73;4.47;;;;;;;1.61;63.06;98651.90;114447;1193;64532;-84
2021/04/08 01:06:55;;;;;;;12.00;5.00;;;;;;;1.63;62.95;98648.27;114274;1193;64353;-78
2021/04/08 01:09:21;;;;;;;6.00;5.00;;;;;;;1.66;62.67;98652.56;114219;1192;64359;-79
2021/04/08 01:11:48;;;;;;;6.80;4.77;;;;;;;1.66;62.56;98652.56;114294;1193;64385;-77
2021/04/08 01:14:15;;;;;;;7.40;4.85;;;;;;;1.62;62.42;98649.19;114391;1193;64464;-77
2021/04/08 01:16:51;;;;;;;10.15;4.95;;;;;;;1.59;62.43;98661.61;114292;1193;64353;-79
2021/04/08 01:19:49;;;;;;;8.87;5.00;;;;;;;1.56;62.41;98654.72;114255;1193;64362;-78
2021/04/08 01:22:34;;;;;;;6.67;4.80;;;;;;;1.57;62.47;98655.56;114506;1193;64362;-80
2021/04/08 01:25:13;;;;;;;6.83;3.83;;;;;;;1.58;62.86;98670.44;114298;1193;64295;-78
2021/04/08 01:28:07;;;;;;;7.77;4.60;;;;;;;1.58;62.22;98676.55;114250;1193;64337;-81
2021/04/08 01:30:53;;;;;;;6.00;4.37;;;;;;;1.59;62.96;98673.03;114405;1193;64390;-79
2021/04/08 01:33:25;;;;;;;9.63;4.50;;;;;;;1.61;62.93;98673.80;114230;1193;64375;-78
2021/04/08 01:35:53;;;;;;;7.37;4.47;;;;;;;1.63;62.99;98676.36;114217;1193;64371;-79
2021/04/08 01:38:27;;;;;;;7.20;4.60;;;;;;;1.63;63.12;98686.89;114250;1193;64458;-78
2021/04/08 01:40:54;;;;;;;7.00;5.10;;;;;;;1.60;63.32;98693.16;114577;1193;64369;-80
2021/04/08 01:43:26;;;;;;;9.55;4.40;;;;;;;1.58;62.79;98683.59;114341;1193;64381;-78
2021/04/08 01:45:58;;;;;;;9.10;5.10;;;;;;;1.57;63.03;98688.00;114264;1193;64401;-81
2021/04/08 01:48:27;;;;;;;7.65;5.45;;;;;;;1.55;62.71;98687.22;114366;1193;64349;-78
2021/04/08 01:50:57;;;;;;;9.40;4.83;;;;;;;1.54;62.95;98703.08;114202;1193;64471;-77
2021/04/08 01:53:26;;;;;;;8.70;4.63;;;;;;;1.51;62.85;98700.56;114267;1193;64335;-78
2021/04/08 01:55:56;;;;;;;7.20;4.10;;;;;;;1.49;63.17;98694.52;114314;1193;64347;-81
2021/04/08 01:58:25;;;;;;;6.07;4.70;;;;;;;1.48;63.31;98698.07;114281;1193;64465;-79
2021/04/08 02:00:54;;;;;;;8.93;5.20;;;;;;;1.48;63.44;98704.19;114540;1193;64371;-79
2021/04/08 02:03:22;;;;;;;11.75;5.00;;;;;;;1.50;63.31;98715.50;114375;1193;64366;-80
2021/04/08 02:05:49;;;;;;;7.47;4.47;;;;;;;1.49;62.85;98705.89;114318;1193;64307;-79
2021/04/08 02:08:18;;;;;;;5.57;3.63;;;;;;;1.51;62.99;98718.98;114308;1193;64371;-79
2021/04/08 02:10:46;;;;;;;8.90;4.05;;;;;;;1.52;64.31;98702.27;114237;1193;64430;-83
2021/04/08 02:13:15;;;;;;;5.55;3.95;;;;;;;1.52;63.22;98718.05;114232;1193;64483;-80
2021/04/08 02:15:46;;;;;;;6.03;4.07;;;;;;;1.50;63.12;98714.64;114570;1193;64340;-80
2021/04/08 02:18:16;;;;;;;5.33;4.03;;;;;;;1.48;63.57;98706.81;114282;1193;64345;-79
2021/04/08 02:20:46;;;;;;;8.17;3.90;;;;;;;1.50;63.83;98722.53;114246;1193;64478;-79
2021/04/08 02:23:19;;;;;;;9.65;5.15;;;;;;;1.50;64.33;98699.70;114322;1193;64484;-81
2021/04/08 02:25:48;;;;;;;10.63;4.70;;;;;;;1.49;63.33;98718.20;114405;1193;64388;-81
2021/04/08 02:28:15;;;;;;;11.05;4.70;;;;;;;1.46;64.05;98726.20;114433;1193;64439;-81
2021/04/08 02:30:47;;;;;;;7.90;4.20;;;;;;;1.45;64.08;98735.02;114285;1193;64244;-82
2021/04/08 02:33:19;;;;;;;14.30;4.75;;;;;;;1.45;64.25;98749.03;114398;1193;64521;-81
2021/04/08 02:35:46;;;;;;;11.10;5.00;;;;;;;1.42;63.50;98743.05;114259;1193;64481;-83
2021/04/08 02:38:13;;;;;;;9.00;4.57;;;;;;;1.40;63.77;98753.64;114293;1193;64426;-81
2021/04/08 02:40:40;;;;;;;9.20;3.93;;;;;;;1.40;63.79;98755.39;114284;1193;64349;-80
2021/04/08 02:43:10;;;;;;;8.90;4.70;;;;;;;1.39;63.62;98754.53;114398;1193;64489;-80
2021/04/08 02:45:38;;;;;;;8.97;4.57;;;;;;;1.39;63.49;98762.42;114263;1193;64531;-78
2021/04/08 02:48:08;;;;;;;8.20;4.40;;;;;;;1.38;63.99;98771.24;114361;1193;64359;-77
2021/04/08 02:50:36;;;;;;;9.70;4.70;;;;;;;1.38;63.84;98765.13;114292;1193;64455;-80
2021/04/08 02:53:30;;;;;;;9.15;4.65;;;;;;;1.39;64.65;98762.42;114299;1193;64378;-79
2021/04/08 02:56:02;;;;;;;7.53;4.47;;;;;;;1.37;62.99;98758.16;114304;1193;64436;-80
2021/04/08 02:58:31;;;;;;;11.13;4.93;;;;;;;1.33;63.64;98768.78;114205;1193;64368;-77
2021/04/08 03:01:08;;;;;;;11.90;4.35;;;;;;;1.30;64.23;98774.18;114499;1193;64353;-77
2021/04/08 03:03:53;;;;;;;12.30;4.37;;;;;;;1.28;64.14;98776.02;114389;1193;64420;-78
2021/04/08 03:06:24;;;;;;;7.80;3.80;;;;;;;1.28;64.08;98786.55;114329;1193;64398;-79
2021/04/08 03:08:55;;;;;;;11.60;4.83;;;;;;;1.29;64.35;98777.73;114502;1193;64359;-77
2021/04/08 03:11:28;;;;;;;7.83;4.70;;;;;;;1.31;64.41;98789.05;114205;1193;64452;-80
2021/04/08 03:13:58;;;;;;;7.80;4.47;;;;;;;1.30;64.16;98795.22;114244;1192;64407;-77
2021/04/08 03:16:30;;;;;;;12.90;5.65;;;;;;;1.29;63.71;98788.25;114356;1193;64455;-79
2021/04/08 03:18:58;;;;;;;8.30;4.70;;;;;;;1.26;63.81;98795.39;114728;1193;64353;-82
2021/04/08 03:21:29;;;;;;;11.40;5.30;;;;;;;1.26;63.69;98793.63;114278;1193;64366;-80
2021/04/08 03:23:58;;;;;;;9.70;5.37;;;;;;;1.25;63.90;98797.17;114219;1193;64481;-82
2021/04/08 03:26:29;;;;;;;12.65;5.20;;;;;;;1.24;64.45;98779.68;114293;1193;64445;-80
2021/04/08 03:28:56;;;;;;;16.33;5.90;;;;;;;1.25;64.18;98802.44;114222;1193;64449;-83
2021/04/08 03:31:24;;;;;;;16.27;6.77;;;;;;;1.27;64.16;98810.26;114268;1193;64433;-77
2021/04/08 03:33:53;;;;;;;15.73;5.07;;;;;;;1.29;65.11;98805.81;114207;1193;64343;-80
2021/04/08 03:36:20;;;;;;;8.77;4.23;;;;;;;1.30;64.07;98818.05;114372;1193;64455;-79
2021/04/08 03:38:50;;;;;;;10.17;4.53;;;;;;;1.31;63.70;98812.72;114480;1193;64324;-78
2021/04/08 03:41:18;;;;;;;11.97;4.90;;;;;;;1.31;63.98;98823.24;114291;1193;64461;-79
2021/04/08 03:43:46;;;;;;;9.33;4.27;;;;;;;1.29;64.32;98827.72;114251;1193;64388;-81
2021/04/08 03:46:14;;;;;;;10.10;4.87;;;;;;;1.28;64.11;98833.90;114227;1193;64359;-79
2021/04/08 03:48:44;;;;;;;11.50;4.60;;;;;;;1.30;64.06;98834.69;114212;1193;64481;-79
2021/04/08 03:51:13;;;;;;;9.75;4.10;;;;;;;1.30;64.75;98829.42;114613;1193;64371;-79
2021/04/08 03:53:40;;;;;;;10.90;3.93;;;;;;;1.32;63.71;98846.00;114223;1193;64355;-79
2021/04/08 03:56:08;;;;;;;10.40;4.40;;;;;;;1.32;64.92;98835.48;114274;1193;64365;-81
2021/04/08 03:58:38;;;;;;;9.30;4.55;;;;;;;1.31;63.92;98846.92;114261;1193;64465;-83
2021/04/08 04:01:05;;;;;;;20.30;6.33;;;;;;;1.31;64.18;98849.55;114683;1193;64461;-78
2021/04/08 04:03:32;;;;;;;12.70;5.45;;;;;;;1.29;63.51;98856.66;114199;1193;64444;-79
2021/04/08 04:05:59;;;;;;;12.73;4.93;;;;;;;1.28;64.57;98865.47;114382;1193;64362;-78
2021/04/08 04:08:26;;;;;;;16.30;5.30;;;;;;;1.28;63.70;98854.95;114283;1193;64317;-81
2021/04/08 04:10:53;;;;;;;10.37;5.13;;;;;;;1.28;63.73;98864.61;114243;1193;64515;-83
2021/04/08 04:13:22;;;;;;;8.10;4.40;;;;;;;1.27;63.75;98866.39;114275;1193;64506;-78
2021/04/08 04:15:51;;;;;;;14.35;5.45;;;;;;;1.26;64.45;98867.28;114447;1193;64363;-77
2021/04/08 04:18:19;;;;;;;14.00;5.80;;;;;;;1.27;64.22;98870.77;114340;1193;64385;-80
2021/04/08 04:20:47;;;;;;;17.13;5.80;;;;;;;1.26;64.24;98876.94;114478;1193;64803;-76
2021/04/08 04:23:14;;;;;;;13.50;4.80;;;;;;;1.28;63.65;98873.36;114221;1193;64451;-81
2021/04/08 04:25:41;;;;;;;10.30;4.90;;;;;;;1.28;64.21;98880.39;114239;1193;64496;-78
2021/04/08 04:28:07;;;;;;;10.83;4.60;;;;;;;1.27;63.91;98878.66;114240;1193;64423;-77
2021/04/08 04:30:34;;;;;;;8.93;4.20;;;;;;;1.26;63.71;98896.21;114426;1193;64371;-79
2021/04/08 04:33:01;;;;;;;11.43;4.97;;;;;;;1.28;64.11;98885.66;114254;1193;64343;-80
2021/04/08 04:35:28;;;;;;;13.67;4.87;;;;;;;1.29;63.71;98872.44;114426;1193;64524;-81
2021/04/08 04:37:55;;;;;;;10.20;4.97;;;;;;;1.31;63.83;98886.38;114210;1193;64346;-79
2021/04/08 04:40:22;;;;;;;14.23;4.00;;;;;;;1.34;63.71;98886.28;114279;1193;64365;-79
2021/04/08 04:42:49;;;;;;;8.90;3.83;;;;;;;1.35;63.34;98877.47;114237;1193;64384;-78
2021/04/08 04:45:16;;;;;;;8.25;4.00;;;;;;;1.38;64.15;98891.42;114301;1193;64385;-79
2021/04/08 04:47:43;;;;;;;11.00;4.80;;;;;;;1.41;63.80;98889.55;114280;1193;64400;-79
2021/04/08 04:50:13;;;;;;;17.43;5.53;;;;;;;1.43;64.09;98894.73;114230;1193;64324;-80
2021/04/08 04:52:39;;;;;;;13.45;4.90;;;;;;;1.42;63.66;98891.25;114291;1193;64323;-78
2021/04/08 04:55:08;;;;;;;10.55;4.40;;;;;;;1.45;63.67;98899.02;114249;1193;64324;-79
2021/04/08 04:57:35;;;;;;;11.70;3.70;;;;;;;1.51;63.74;98893.52;114565;1193;64375;-77
2021/04/08 05:00:04;;;;;;;18.50;5.60;;;;;;;1.53;63.39;98904.02;114243;1192;64295;-80
2021/04/08 05:02:31;;;;;;;7.60;3.70;;;;;;;1.55;63.14;98907.44;114278;1193;64646;-81
2021/04/08 05:04:58;;;;;;;13.57;4.13;;;;;;;1.56;63.50;98906.52;114250;1193;64359;-78
2021/04/08 05:07:25;;;;;;;17.53;5.13;;;;;;;1.59;63.19;98902.01;114383;1193;64474;-81
2021/04/08 05:09:51;;;;;;;15.60;5.90;;;;;;;1.62;63.27;98903.66;114281;1193;64844;-78
2021/04/08 05:12:18;;;;;;;15.30;5.90;;;;;;;1.64;62.74;98904.44;114237;1193;64363;-81
2021/04/08 05:14:45;;;;;;;24.90;8.30;;;;;;;1.64;62.85;98914.97;114215;1193;64396;-79
2021/04/08 05:17:12;;;;;;;20.60;9.05;;;;;;;1.62;63.20;98917.67;114335;1193;64426;-78
2021/04/08 05:19:39;;;;;;;25.37;11.23;;;;;;;1.68;62.54;98921.84;114259;1193;64452;-78
2021/04/08 05:22:05;;;;;;;13.70;5.63;;;;;;;1.77;62.85;98929.38;114265;1193;64414;-79
2021/04/08 05:24:32;;;;;;;8.83;3.77;;;;;;;1.81;63.13;98933.62;114576;1193;64343;-78
2021/04/08 05:26:59;;;;;;;16.45;5.60;;;;;;;1.83;62.88;98937.04;114247;1193;64446;-76
2021/04/08 05:29:26;;;;;;;18.90;4.10;;;;;;;1.84;62.99;98930.85;116422;1193;64678;-76
2021/04/08 05:31:53;;;;;;;15.90;4.77;;;;;;;1.88;62.72;98937.73;114420;1193;64366;-78
2021/04/08 05:34:20;;;;;;;9.87;3.73;;;;;;;1.88;62.70;98935.09;114376;1193;64350;-77
2021/04/08 05:36:47;;;;;;;11.90;4.30;;;;;;;1.84;62.52;98938.75;114332;1193;64324;-78
2021/04/08 05:39:13;;;;;;;14.95;4.20;;;;;;;1.83;62.87;98937.04;114422;1193;64506;-79
2021/04/08 05:41:40;;;;;;;9.60;4.35;;;;;;;1.82;62.63;98940.59;114417;1193;64452;-77
2021/04/08 05:44:07;;;;;;;9.63;4.30;;;;;;;1.84;62.98;98951.06;114389;1193;64391;-76
2021/04/08 05:46:34;;;;;;;10.07;4.47;;;;;;;1.90;62.83;98959.58;114470;1193;64467;-78
2021/04/08 05:49:01;;;;;;;9.65;3.50;;;;;;;1.95;62.87;98954.14;114361;1193;64369;-78
2021/04/08 05:51:28;;;;;;;11.13;4.67;;;;;;;1.98;63.05;98966.36;114355;1193;64669;-79
2021/04/08 05:53:55;;;;;;;11.27;4.33;;;;;;;1.90;64.84;98975.38;114362;1193;64457;-79
2021/04/08 05:56:22;;;;;;;9.70;4.80;;;;;;;1.71;64.21;98969.09;114366;1193;64391;-78
2021/04/08 05:58:50;;;;;;;15.05;4.85;;;;;;;1.65;65.03;98985.13;114368;1193;64356;-78
2021/04/08 06:01:17;;;;;;;9.40;4.17;;;;;;;1.73;65.09;98983.09;114399;1193;64387;-80
2021/04/08 06:03:48;;;;;;;11.05;3.80;;;;;;;1.86;64.87;98986.97;114333;1193;64474;-77
2021/04/08 06:06:21;;;;;;;11.83;4.20;;;;;;;1.99;64.72;98983.88;114506;1193;64330;-82
2021/04/08 06:08:48;;;;;;;7.80;3.43;;;;;;;2.03;64.79;98988.94;114322;1193;64324;-79
2021/04/08 06:11:15;;;;;;;9.47;3.53;;;;;;;2.06;64.77;98995.88;114375;1192;64412;-78
2021/04/08 06:13:42;;;;;;;11.80;4.60;;;;;;;2.12;65.15;98987.75;114383;1193;64378;-77
2021/04/08 06:16:09;;;;;;;12.85;4.25;;;;;;;2.15;64.08;99019.22;114336;1192;64343;-76
2021/04/08 06:18:38;;;;;;;17.30;4.70;;;;;;;2.29;64.38;99001.13;114511;1193;64340;-78
2021/04/08 06:21:05;;;;;;;12.50;4.55;;;;;;;2.49;63.92;99002.11;114476;1193;64359;-77
2021/04/08 06:23:32;;;;;;;13.70;4.80;;;;;;;2.61;63.59;99005.11;114364;1193;64352;-77
2021/04/08 06:25:59;;;;;;;13.15;6.70;;;;;;;2.80;63.87;99015.77;114429;1193;64330;-79
2021/04/08 06:28:26;;;;;;;8.75;3.15;;;;;;;3.14;63.31;99014.34;114317;1192;64564;-77
2021/04/08 06:30:53;;;;;;;9.67;4.17;;;;;;;3.23;63.04;99012.15;114374;1193;64333;-78
2021/04/08 06:33:20;;;;;;;15.85;6.00;;;;;;;3.23;62.91;99017.43;114332;1193;64381;-78
2021/04/08 06:35:46;;;;;;;9.77;4.40;;;;;;;3.17;62.45;99020.33;114333;1193;64291;-79
2021/04/08 06:38:13;;;;;;;11.77;4.30;;;;;;;3.13;62.93;99020.55;114299;1193;64388;-79
2021/04/08 06:40:40;;;;;;;15.83;5.23;;;;;;;3.16;63.08;99029.17;114440;1193;64353;-76
2021/04/08 06:43:11;;;;;;;14.53;4.87;;;;;;;3.18;62.83;99032.63;114320;1193;64365;-80
2021/04/08 06:45:46;;;;;;;16.10;5.20;;;;;;;3.10;62.98;99039.13;114539;1193;64362;-78
2021/04/08 06:48:45;;;;;;;11.40;5.50;;;;;;;3.01;63.05;99039.53;114581;1193;64441;-78
2021/04/08 06:51:19;;;;;;;10.10;5.40;;;;;;;3.08;63.09;99070.01;114630;1193;64458;-81
2021/04/08 06:53:51;;;;;;;11.90;4.35;;;;;;;3.11;62.64;99056.67;114366;1193;64519;-77
2021/04/08 06:56:18;;;;;;;13.97;5.83;;;;;;;3.10;62.70;99062.88;114340;1193;64487;-81
2021/04/08 06:58:45;;;;;;;12.47;6.77;;;;;;;3.15;62.88;99055.63;114288;1193;64410;-80
2021/04/08 07:01:12;;;;;;;12.73;6.40;;;;;;;3.15;62.63;99068.83;114270;1192;64391;-76
2021/04/08 07:03:40;;;;;;;14.33;6.33;;;;;;;3.15;63.11;99074.11;114336;1193;64362;-77
2021/04/08 07:06:06;;;;;;;15.63;5.80;;;;;;;3.25;63.30;99078.09;114345;1193;64398;-78
2021/04/08 07:08:35;;;;;;;13.67;5.63;;;;;;;3.21;63.09;99085.27;114300;1193;64352;-79
2021/04/08 07:11:02;;;;;;;10.77;5.40;;;;;;;3.09;63.93;99072.58;114286;1193;64433;-79
2021/04/08 07:13:31;;;;;;;13.10;4.77;;;;;;;3.08;63.62;99078.78;114275;1193;64378;-78
2021/04/08 07:16:01;;;;;;;14.80;5.37;;;;;;;3.19;63.17;99080.98;114333;1193;64384;-81
2021/04/08 07:18:28;;;;;;;11.20;4.80;;;;;;;3.29;63.28;99090.21;114375;1193;64401;-84
2021/04/08 07:20:57;;;;;;;14.85;5.20;;;;;;;3.44;63.27;99086.09;114177;1193;64371;-78
2021/04/08 07:23:24;;;;;;;12.33;4.53;;;;;;;3.67;62.85;99093.86;114323;1193;64356;-79
2021/04/08 07:26:11;;;;;;;14.80;5.10;;;;;;;3.93;62.87;99090.06;114323;1193;64426;-78
2021/04/08 07:28:40;;;;;;;17.43;5.10;;;;;;;4.23;61.95;99092.27;114279;1193;64758;-77
2021/04/08 07:31:27;;;;;;;15.70;5.30;;;;;;;4.37;62.12;99097.77;114309;1192;64574;-78
2021/04/08 07:33:55;;;;;;;;;;;;;;;4.58;62.22;99094.14;114406;1201;64465;-79
2021/04/08 07:36:40;;;;;;;8.57;3.77;;;;;;;4.73;61.50;99094.34;114309;1192;64394;-80
2021/04/08 07:39:17;;;;;;;14.93;5.20;;;;;;;4.81;61.78;99108.05;114346;1193;64435;-79
2021/04/08 07:41:57;;;;;;;10.00;3.80;;;;;;;4.95;61.66;99110.89;114332;1193;64298;-78
2021/04/08 07:44:24;;;;;;;13.20;5.00;;;;;;;4.79;61.63;99121.36;114279;1192;64417;-78
2021/04/08 07:46:51;;;;;;;17.30;5.30;;;;;;;4.52;61.94;99123.52;114235;1193;64368;-80
2021/04/08 07:49:33;;;;;;;8.97;4.20;;;;;;;4.41;61.97;99117.86;114431;1193;65556;-77
2021/04/08 07:52:25;;;;;;;16.70;4.70;;;;;;;4.26;61.11;99137.94;114271;1192;64401;-78
2021/04/08 07:55:20;;;;;;;12.07;4.70;;;;;;;4.11;62.28;99141.25;114262;1193;64311;-83
2021/04/08 07:58:12;;;;;;;6.50;3.40;;;;;;;4.21;61.99;99141.71;114258;1193;64451;-79
2021/04/08 08:00:53;;;;;;;8.35;3.35;;;;;;;4.47;62.00;99165.19;114296;1193;64368;-78
2021/04/08 08:03:25;;;;;;;12.40;4.00;;;;;;;4.44;61.76;99153.88;114279;1193;64346;-77
2021/04/08 08:06:00;;;;;;;9.65;3.55;;;;;;;4.36;61.53;99164.80;114460;1193;64295;-77
2021/04/08 08:08:45;;;;;;;10.57;4.13;;;;;;;4.20;61.35;99174.33;114286;1193;64366;-83
2021/04/08 08:11:15;;;;;;;10.47;4.23;;;;;;;4.15;61.48;99168.41;114135;1193;64442;-77
2021/04/08 08:13:52;;;;;;;7.85;3.00;;;;;;;4.26;61.53;99176.70;114308;1193;64404;-78
2021/04/08 08:16:21;;;;;;;15.20;7.15;;;;;;;4.12;61.76;99173.81;114283;1193;64427;-76
2021/04/08 08:18:51;;;;;;;10.73;4.30;;;;;;;4.01;61.92;99164.59;114248;1193;64384;-77
2021/04/08 08:21:40;;;;;;;12.13;5.00;;;;;;;4.07;61.99;99189.87;114258;1193;64336;-78
2021/04/08 08:24:10;;;;;;;11.30;4.80;;;;;;;4.29;61.95;99188.02;114306;1193;64468;-79
2021/04/08 08:26:49;;;;;;;103.73;73.67;;;;;;;4.36;61.70;99185.95;114461;1193;64702;-77
2021/04/08 08:29:27;;;;;;;9.75;4.75;;;;;;;4.50;61.35;99186.19;114225;1193;64384;-82
2021/04/08 08:32:00;;;;;;;11.50;4.63;;;;;;;4.45;61.79;99192.60;114291;1193;64371;-80
2021/04/08 08:34:38;;;;;;;8.77;4.20;;;;;;;4.43;61.75;99194.47;114253;1193;64349;-81
2021/04/08 08:37:13;;;;;;;13.75;5.25;;;;;;;4.26;61.05;99201.38;114314;1193;64369;-77
2021/04/08 08:39:46;;;;;;;18.03;8.03;;;;;;;3.96;61.53;99218.56;114281;1193;64358;-77
2021/04/08 08:42:17;;;;;;;18.77;6.83;;;;;;;3.94;62.19;99217.75;114408;1193;64298;-77
2021/04/08 08:44:45;;;;;;;17.20;5.50;;;;;;;4.09;61.35;99226.83;114427;1192;64471;-77
2021/04/08 08:47:24;;;;;;;22.90;8.53;;;;;;;4.10;61.13;99221.47;114359;1193;64385;-77
2021/04/08 08:50:18;;;;;;;31.97;13.83;;;;;;;4.37;61.82;99234.41;114371;1193;64349;-82
2021/04/08 08:52:49;;;;;;;;;;;;;;;4.56;60.77;99217.64;114459;1200;64378;-83
2021/04/08 08:55:20;;;;;;;27.50;10.70;;;;;;;4.84;61.30;99222.55;114386;1193;64305;-83
2021/04/08 08:58:06;;;;;;;16.23;5.87;;;;;;;5.01;60.34;99220.89;114315;1193;64304;-78
2021/04/08 09:00:34;;;;;;;15.43;5.87;;;;;;;5.01;60.87;99234.98;114254;1193;64455;-77
2021/04/08 09:03:04;;;;;;;15.70;6.20;;;;;;;5.10;61.50;99228.42;114324;1193;64448;-78
2021/04/08 09:05:36;;;;;;;15.23;5.20;;;;;;;5.11;60.86;99235.43;114442;1193;64359;-79
2021/04/08 09:08:14;;;;;;;17.83;6.27;;;;;;;5.06;60.25;99250.66;114356;1193;64407;-78
2021/04/08 09:10:43;;;;;;;19.93;9.27;;;;;;;4.94;60.18;99265.31;114379;1193;64347;-77
2021/04/08 09:13:11;;;;;;;11.00;5.70;;;;;;;4.80;59.87;99247.42;114417;1193;64378;-77
2021/04/08 09:15:39;;;;;;;36.17;10.20;;;;;;;4.70;60.81;99250.55;114305;1192;64448;-78
2021/04/08 09:18:09;;;;;;;17.33;5.50;;;;;;;4.63;60.23;99257.91;114471;1193;64678;-81
2021/04/08 09:20:38;;;;;;;13.90;4.90;;;;;;;4.55;60.31;99255.60;114425;1193;64369;-78
2021/04/08 09:23:11;;;;;;;17.63;5.93;;;;;;;4.61;60.70;99254.48;114390;1193;64470;-84
2021/04/08 09:26:01;;;;;;;13.50;5.20;;;;;;;4.83;60.62;99268.44;114236;1193;64465;-77
2021/04/08 09:28:38;;;;;;;14.40;5.20;;;;;;;5.36;60.55;99261.61;114189;1193;64442;-78
2021/04/08 09:31:07;;;;;;;14.97;5.00;;;;;;;5.61;60.45;99262.15;114249;1193;64349;-80
2021/04/08 09:36:23;;;;;;;11.17;4.37;;;;;;;5.69;59.28;99278.52;114390;1193;64298;-77
2021/04/08 09:39:00;;;;;;;14.80;5.50;;;;;;;5.70;59.73;99272.28;114378;1193;64793;-78
2021/04/08 09:41:44;;;;;;;12.65;3.80;;;;;;;5.91;58.87;99280.14;114354;1193;64359;-80
2021/04/08 09:44:19;;;;;;;12.80;4.87;;;;;;;5.72;59.80;99293.40;114321;1193;64330;-78
2021/04/08 09:46:50;;;;;;;12.43;4.20;;;;;;;5.47;58.71;99291.10;114407;1193;64320;-78
2021/04/08 09:49:37;;;;;;;15.60;4.73;;;;;;;5.33;59.32;99291.72;114451;1193;64403;-86
2021/04/08 09:52:05;;;;;;;9.10;4.00;;;;;;;5.17;60.07;99301.33;114399;1193;64366;-78
2021/04/08 09:54:42;;;;;;;17.27;5.20;;;;;;;5.08;60.25;99307.03;114368;1193;64783;-78
2021/04/08 09:57:10;;;;;;;14.87;5.17;;;;;;;5.06;61.20;99316.84;114296;1193;64381;-79
2021/04/08 10:00:06;;;;;;;11.63;5.00;;;;;;;4.92;60.62;99313.97;114360;1193;64816;-81
2021/04/08 10:02:54;;;;;;;14.10;4.47;;;;;;;4.74;60.97;99319.14;114342;1193;64366;-77
2021/04/08 10:05:22;;;;;;;9.07;3.87;;;;;;;4.83;61.25;99317.86;114314;1193;64337;-82
2021/04/08 10:07:54;;;;;;;18.77;5.43;;;;;;;4.99;62.18;99310.97;114230;1193;64512;-80
2021/04/08 10:10:25;;;;;;;17.60;6.85;;;;;;;5.10;61.59;99319.28;114550;1193;64349;-82
2021/04/08 10:12:52;;;;;;;18.10;6.50;;;;;;;5.18;61.53;99320.72;114331;1193;64324;-78
2021/04/08 10:15:35;;;;;;;16.23;4.60;;;;;;;5.50;60.66;99305.98;114267;1192;64343;-79
2021/04/08 10:18:16;;;;;;;27.57;8.60;;;;;;;5.68;60.66;99308.61;114298;1193;64410;-80
2021/04/08 10:20:46;;;;;;;14.17;4.83;;;;;;;6.02;60.37;99306.13;114309;1193;64518;-79
2021/04/08 10:23:15;;;;;;;25.13;6.90;;;;;;;5.99;59.32;99314.25;114390;1193;64371;-79
2021/04/08 10:25:43;;;;;;;12.60;5.05;;;;;;;5.91;59.21;99311.95;114460;1193;64400;-78
2021/04/08 10:28:10;;;;;;;26.20;7.00;;;;;;;5.84;59.87;99314.01;114358;1193;64371;-77
2021/04/08 10:30:38;;;;;;;12.27;4.20;;;;;;;5.88;59.33;99322.69;114343;1193;64420;-77
2021/04/08 10:33:20;;;;;;;15.63;5.07;;;;;;;5.81;58.59;99305.36;114326;1193;64375;-77
2021/04/08 10:35:47;;;;;;;21.80;5.90;;;;;;;5.87;59.15;99316.53;114434;1193;64375;-77
2021/04/08 10:38:14;;;;;;;223.70;95.10;;;;;;;6.17;59.23;99340.72;114249;1193;64406;-80
2021/04/08 10:40:52;;;;;;;11.90;4.40;;;;;;;6.21;58.96;99336.95;114354;1192;64468;-78
2021/04/08 10:43:19;;;;;;;14.00;4.40;;;;;;;6.25;58.80;99337.67;114552;1193;64417;-78
2021/04/08 10:45:59;;;;;;;22.67;6.37;;;;;;;6.22;58.24;99348.42;114452;1193;64407;-77
2021/04/08 10:48:29;;;;;;;13.47;4.10;;;;;;;6.07;58.38;99344.74;114491;1193;64340;-77
2021/04/08 10:50:57;;;;;;;18.00;5.70;;;;;;;6.03;58.75;99348.46;114475;1193;64465;-77
2021/04/08 10:53:26;;;;;;;25.95;7.10;;;;;;;6.07;59.49;99360.65;114455;1193;64369;-77
2021/04/08 10:55:55;;;;;;;21.80;9.20;;;;;;;6.27;59.24;99361.46;114508;1193;64404;-77
2021/04/08 10:58:29;;;;;;;58.13;16.63;;;;;;;6.35;57.89;99353.97;114320;1193;64494;-78
2021/04/08 11:00:57;;;;;;;17.20;5.75;;;;;;;6.30;57.88;99363.95;114280;1193;64378;-77
2021/04/08 11:03:25;;;;;;;13.60;4.40;;;;;;;6.31;57.89;99368.34;114402;1193;64337;-80
2021/04/08 11:05:52;;;;;;;97.75;34.45;;;;;;;6.25;58.34;99361.55;114304;1193;64240;-79
2021/04/08 11:08:20;;;;;;;22.95;8.30;;;;;;;6.43;57.93;99373.04;114288;1193;64350;-77
2021/04/08 11:10:47;;;;;;;13.20;4.60;;;;;;;6.42;56.71;99355.38;114333;1193;64356;-76
2021/04/08 11:13:15;;;;;;;11.97;4.03;;;;;;;6.48;56.48;99368.33;114340;1193;64429;-78
2021/04/08 11:15:44;;;;;;;17.30;5.87;;;;;;;6.47;57.06;99366.63;114308;1193;64374;-76
2021/04/08 11:18:16;;;;;;;17.27;5.83;;;;;;;6.58;57.72;99366.94;114287;1193;64356;-77
2021/04/08 11:20:45;;;;;;;19.47;7.10;;;;;;;6.68;57.10;99370.86;114319;1193;64314;-78
2021/04/08 11:23:16;;;;;;;16.80;4.00;;;;;;;6.74;56.14;99365.23;114214;1193;64506;-80
2021/04/08 11:25:43;;;;;;;10.35;3.50;;;;;;;6.85;55.87;99364.66;114234;1193;64464;-78
2021/04/08 11:28:11;;;;;;;14.07;3.90;;;;;;;6.89;56.81;99366.23;114232;1193;64426;-82
2021/04/08 11:30:40;;;;;;;17.63;5.87;;;;;;;7.11;55.90;99375.72;114292;1193;64371;-78
2021/04/08 11:33:20;;;;;;;10.20;4.40;;;;;;;7.20;56.05;99377.91;114352;1193;64423;-79
2021/04/08 11:35:47;;;;;;;16.20;6.03;;;;;;;7.06;56.08;99373.30;114317;1192;64307;-78
2021/04/08 11:38:19;;;;;;;13.50;3.70;;;;;;;7.10;56.21;99384.63;114350;1193;64470;-77
2021/04/08 11:41:08;;;;;;;9.00;3.57;;;;;;;7.15;55.79;99387.91;114437;1192;64327;-80
2021/04/08 11:43:52;;;;;;;9.87;4.17;;;;;;;7.46;55.43;99376.50;114342;1193;64368;-77
2021/04/08 11:46:32;;;;;;;15.45;5.70;;;;;;;7.53;56.44;99361.94;114346;1193;64304;-76
2021/04/08 11:49:00;;;;;;;10.13;3.00;;;;;;;7.65;55.73;99379.87;114297;1193;64365;-79